createdAt,value
2019-06-26T00:00:25.635Z,24.10
2019-06-26T00:02:56.004Z,24.10
2019-06-26T00:05:26.556Z,24.10
2019-06-26T00:07:56.943Z,24.00
2019-06-26T00:10:28.273Z,24.00
2019-06-26T00:12:58.660Z,24.00
2019-06-26T00:15:29.108Z,24.10
2019-06-26T00:17:59.499Z,24.00
2019-06-26T00:20:30.019Z,24.00
2019-06-26T00:23:00.375Z,24.00
2019-06-26T00:29:31.590Z,24.00
2019-06-26T00:32:04.975Z,23.80
2019-06-26T00:34:35.291Z,23.70
2019-06-26T00:37:05.693Z,23.60
2019-06-26T00:39:36.086Z,23.50
2019-06-26T00:42:06.578Z,23.50
2019-06-26T00:44:37.009Z,23.50
2019-06-26T00:47:07.457Z,23.40
2019-06-26T00:49:37.830Z,23.30
2019-06-26T00:52:08.166Z,23.30
2019-06-26T00:54:38.605Z,23.20
2019-06-26T00:57:09.030Z,23.20
2019-06-26T00:59:39.302Z,23.10
2019-06-26T01:02:09.815Z,23.10
2019-06-26T01:04:42.459Z,23.10
2019-06-26T01:07:12.906Z,23.00
2019-06-26T01:09:44.239Z,23.00
2019-06-26T01:12:14.602Z,22.90
2019-06-26T01:14:44.939Z,22.90
2019-06-26T01:17:15.239Z,22.90
2019-06-26T01:19:45.570Z,22.80
2019-06-26T01:22:16.800Z,22.80
2019-06-26T01:24:47.267Z,22.80
2019-06-26T01:27:17.634Z,22.70
2019-06-26T01:29:47.986Z,22.70
2019-06-26T01:32:18.404Z,22.60
2019-06-26T01:34:49.847Z,22.60
2019-06-26T01:37:20.110Z,22.50
2019-06-26T01:39:50.462Z,22.50
2019-06-26T01:42:20.810Z,22.50
2019-06-26T01:44:52.219Z,22.50
2019-06-26T01:47:22.733Z,22.50
2019-06-26T01:49:53.081Z,22.40
2019-06-26T01:52:23.515Z,22.40
2019-06-26T01:54:53.812Z,22.40
2019-06-26T01:57:24.183Z,22.30
2019-06-26T01:59:54.662Z,22.30
2019-06-26T02:02:24.960Z,22.30
2019-06-26T02:04:55.387Z,22.30
2019-06-26T02:07:25.749Z,22.40
2019-06-26T02:09:56.177Z,22.40
2019-06-26T02:12:26.639Z,22.40
2019-06-26T02:14:57.041Z,22.40
2019-06-26T02:17:27.435Z,22.40
2019-06-26T02:19:57.828Z,22.30
2019-06-26T02:22:28.236Z,22.30
2019-06-26T02:24:59.215Z,22.30
2019-06-26T02:27:29.675Z,22.30
2019-06-26T02:30:00.044Z,22.40
2019-06-26T02:32:33.654Z,22.30
2019-06-26T02:35:09.688Z,22.20
2019-06-26T02:37:38.586Z,22.10
2019-06-26T02:40:09.790Z,22.00
2019-06-26T02:42:40.272Z,22.00
2019-06-26T02:45:10.926Z,21.90
2019-06-26T02:47:41.340Z,21.90
2019-06-26T02:50:11.757Z,21.70
2019-06-26T02:52:42.056Z,21.70
2019-06-26T02:55:12.602Z,21.60
2019-06-26T02:57:42.979Z,21.50
2019-06-26T03:00:13.469Z,21.50
2019-06-26T03:02:43.890Z,21.40
2019-06-26T03:05:14.405Z,21.30
2019-06-26T03:07:45.524Z,21.30
2019-06-26T03:10:16.068Z,21.30
2019-06-26T03:12:46.779Z,21.20
2019-06-26T03:15:17.420Z,21.20
2019-06-26T03:17:55.330Z,21.10
2019-06-26T03:20:22.975Z,21.10
2019-06-26T03:22:53.373Z,21.00
2019-06-26T03:25:23.716Z,21.10
2019-06-26T03:27:54.303Z,21.00
2019-06-26T03:30:24.880Z,21.10
2019-06-26T03:32:55.215Z,21.00
2019-06-26T03:35:25.616Z,21.00
2019-06-26T03:37:55.951Z,21.10
2019-06-26T03:40:26.340Z,21.20
2019-06-26T03:42:56.733Z,21.30
2019-06-26T03:45:27.127Z,21.30
2019-06-26T03:47:57.511Z,21.30
2019-06-26T03:50:27.942Z,21.40
2019-06-26T03:52:58.494Z,21.40
2019-06-26T03:55:28.851Z,21.40
2019-06-26T03:57:59.153Z,21.40
2019-06-26T04:00:40.079Z,21.40
2019-06-26T04:03:11.138Z,21.40
2019-06-26T04:05:41.650Z,21.40
2019-06-26T04:08:12.075Z,21.40
2019-06-26T04:10:43.498Z,21.60
2019-06-26T04:13:14.145Z,21.60
2019-06-26T04:15:44.532Z,21.50
2019-06-26T04:18:14.886Z,21.60
2019-06-26T04:20:45.221Z,21.60
2019-06-26T04:23:16.573Z,21.60
2019-06-26T04:25:46.844Z,21.60
2019-06-26T04:28:17.140Z,21.50
2019-06-26T04:30:49.468Z,21.40
2019-06-26T04:33:19.929Z,21.40
2019-06-26T04:35:50.276Z,21.50
2019-06-26T04:38:20.577Z,21.50
2019-06-26T04:40:50.939Z,21.50
2019-06-26T04:43:22.276Z,21.50
2019-06-26T04:45:57.962Z,21.70
2019-06-26T04:48:24.700Z,21.60
2019-06-26T04:50:55.129Z,21.70
2019-06-26T04:53:25.509Z,21.70
2019-06-26T04:55:56.873Z,21.80
2019-06-26T04:58:27.306Z,21.80
2019-06-26T05:00:58.566Z,21.90
2019-06-26T05:03:29.020Z,21.90
2019-06-26T05:05:59.340Z,22.00
2019-06-26T05:08:29.620Z,22.00
2019-06-26T05:11:04.442Z,22.00
2019-06-26T05:13:34.862Z,22.00
2019-06-26T05:16:15.121Z,22.20
2019-06-26T05:18:38.305Z,22.20
2019-06-26T05:21:08.643Z,22.20
2019-06-26T05:23:39.061Z,22.10
2019-06-26T05:26:09.404Z,22.20
2019-06-26T05:28:39.761Z,22.20
2019-06-26T05:31:10.994Z,22.30
2019-06-26T05:33:42.493Z,22.50
2019-06-26T05:36:12.922Z,22.50
2019-06-26T05:38:43.434Z,22.60
2019-06-26T05:41:13.778Z,22.70
2019-06-26T05:43:44.239Z,22.90
2019-06-26T05:46:26.925Z,22.90
2019-06-26T05:48:46.807Z,23.00
2019-06-26T05:51:17.170Z,23.10
2019-06-26T05:53:47.678Z,23.20
2019-06-26T05:56:18.026Z,23.10
2019-06-26T05:58:48.385Z,23.20
2019-06-26T06:01:19.806Z,23.30
2019-06-26T06:03:50.174Z,23.10
2019-06-26T06:06:20.677Z,23.30
2019-06-26T06:08:51.194Z,23.50
2019-06-26T06:11:21.726Z,23.30
2019-06-26T06:13:52.219Z,23.20
2019-06-26T06:16:24.575Z,23.20
2019-06-26T06:18:55.133Z,23.10
2019-06-26T06:21:25.413Z,23.20
2019-06-26T06:23:55.880Z,23.50
2019-06-26T06:26:26.165Z,23.60
2019-06-26T06:28:56.532Z,24.00
2019-06-26T06:31:26.780Z,24.30
2019-06-26T06:33:57.144Z,24.70
2019-06-26T06:36:27.504Z,25.00
2019-06-26T06:38:57.905Z,24.90
2019-06-26T06:41:28.204Z,24.90
2019-06-26T06:43:58.618Z,25.10
2019-06-26T06:46:28.917Z,25.00
2019-06-26T06:48:59.205Z,24.80
2019-06-26T06:51:29.572Z,24.80
2019-06-26T06:53:59.840Z,24.80
2019-06-26T06:56:33.501Z,24.70
2019-06-26T06:59:05.799Z,24.60
2019-06-26T07:01:36.272Z,24.60
2019-06-26T07:04:06.710Z,24.50
2019-06-26T07:06:37.138Z,24.50
2019-06-26T07:09:07.600Z,24.80
2019-06-26T07:11:37.937Z,25.00
2019-06-26T07:14:08.320Z,25.20
2019-06-26T07:16:38.745Z,25.40
2019-06-26T07:19:09.085Z,25.80
2019-06-26T07:21:39.407Z,25.90
2019-06-26T07:24:10.753Z,26.00
2019-06-26T07:26:41.204Z,26.10
2019-06-26T07:29:11.579Z,26.20
2019-06-26T07:31:41.959Z,26.10
2019-06-26T07:34:12.315Z,25.90
2019-06-26T07:36:42.667Z,26.00
2019-06-26T07:39:12.947Z,25.70
2019-06-26T07:41:43.225Z,25.40
2019-06-26T07:44:13.515Z,25.60
2019-06-26T07:46:43.793Z,25.70
2019-06-26T07:49:14.286Z,25.90
2019-06-26T07:51:44.708Z,26.20
2019-06-26T07:54:15.042Z,26.60
2019-06-26T07:56:45.326Z,26.50
2019-06-26T07:59:16.657Z,26.50
2019-06-26T08:01:47.124Z,26.50
2019-06-26T08:04:18.552Z,26.50
2019-06-26T08:06:50.005Z,26.60
2019-06-26T08:09:20.532Z,26.70
2019-06-26T08:11:50.836Z,26.90
2019-06-26T08:14:21.386Z,27.20
2019-06-26T08:16:51.772Z,27.30
2019-06-26T08:19:22.148Z,27.20
2019-06-26T08:21:53.535Z,27.60
2019-06-26T08:24:24.003Z,27.50
2019-06-26T08:26:54.367Z,27.30
2019-06-26T08:29:24.772Z,27.30
2019-06-26T08:31:55.167Z,27.40
2019-06-26T08:34:25.707Z,27.80
2019-06-26T08:36:56.030Z,28.10
2019-06-26T08:39:27.479Z,28.20
2019-06-26T08:41:57.953Z,28.40
2019-06-26T08:44:28.352Z,28.70
2019-06-26T08:46:58.796Z,28.60
2019-06-26T08:49:29.282Z,28.30
2019-06-26T08:52:00.032Z,28.00
2019-06-26T08:54:33.158Z,28.00
2019-06-26T08:57:06.842Z,28.00
2019-06-26T08:59:37.179Z,27.90
2019-06-26T09:02:07.802Z,28.10
2019-06-26T09:04:38.044Z,28.20
2019-06-26T09:07:08.524Z,28.30
2019-06-26T09:09:38.952Z,28.60
2019-06-26T09:12:09.310Z,28.60
2019-06-26T09:14:39.576Z,28.60
2019-06-26T09:17:11.055Z,28.40
2019-06-26T09:19:41.378Z,28.50
2019-06-26T09:22:11.931Z,28.60
2019-06-26T09:24:43.128Z,28.50
2019-06-26T09:27:15.037Z,28.60
2019-06-26T09:29:45.657Z,28.70
2019-06-26T09:32:16.078Z,28.90
2019-06-26T09:34:46.440Z,29.10
2019-06-26T09:37:16.737Z,29.10
2019-06-26T09:39:47.094Z,28.80
2019-06-26T09:42:19.786Z,28.70
2019-06-26T09:44:50.383Z,28.90
2019-06-26T09:47:20.745Z,28.90
2019-06-26T09:49:51.074Z,28.70
2019-06-26T09:52:21.460Z,28.80
2019-06-26T09:54:51.969Z,28.90
2019-06-26T09:57:22.271Z,28.90
2019-06-26T09:59:52.561Z,28.90
2019-06-26T10:02:22.878Z,28.70
2019-06-26T10:04:54.311Z,28.60
2019-06-26T10:07:25.736Z,28.60
2019-06-26T10:09:56.029Z,28.40
2019-06-26T10:12:26.460Z,28.50
2019-06-26T10:14:56.795Z,28.70
2019-06-26T10:17:27.222Z,28.70
2019-06-26T10:19:57.562Z,28.80
2019-06-26T10:22:27.976Z,28.90
2019-06-26T10:24:58.430Z,29.10
2019-06-26T10:27:29.587Z,29.00
2019-06-26T10:30:00.200Z,28.80
2019-06-26T10:32:30.680Z,28.90
2019-06-26T10:35:04.761Z,28.90
2019-06-26T10:37:36.032Z,28.80
2019-06-26T10:40:07.173Z,29.00
2019-06-26T10:42:37.716Z,29.10
2019-06-26T10:45:08.752Z,29.10
2019-06-26T10:47:39.979Z,28.90
2019-06-26T10:50:10.979Z,28.60
2019-06-26T10:52:41.354Z,28.60
2019-06-26T10:55:13.111Z,28.80
2019-06-26T10:57:43.488Z,28.60
2019-06-26T11:00:14.458Z,28.80
2019-06-26T11:02:44.860Z,28.80
2019-06-26T11:05:15.711Z,28.60
2019-06-26T11:07:46.134Z,28.60
2019-06-26T11:10:16.928Z,28.80
2019-06-26T11:12:49.030Z,28.80
2019-06-26T11:15:19.824Z,28.70
2019-06-26T11:17:50.181Z,28.60
2019-06-26T11:20:20.741Z,28.80
2019-06-26T11:22:51.140Z,28.90
2019-06-26T11:25:21.740Z,28.90
2019-06-26T11:27:52.096Z,28.90
2019-06-26T11:30:23.623Z,28.70
2019-06-26T11:32:54.291Z,29.10
2019-06-26T11:35:24.659Z,29.20
2019-06-26T11:37:55.111Z,29.40
2019-06-26T11:40:25.525Z,29.50
2019-06-26T11:42:55.957Z,29.30
2019-06-26T11:45:26.372Z,29.30
2019-06-26T11:47:56.822Z,29.30
2019-06-26T11:50:27.556Z,29.30
2019-06-26T11:52:58.039Z,29.00
2019-06-26T11:55:28.410Z,28.80
2019-06-26T11:57:58.799Z,28.80
2019-06-26T12:00:30.253Z,29.00
2019-06-26T12:03:01.157Z,29.10
2019-06-26T12:05:34.903Z,29.10
2019-06-26T12:08:05.351Z,29.10
2019-06-26T12:10:35.779Z,29.20
2019-06-26T12:13:06.293Z,29.20
2019-06-26T12:15:36.719Z,29.20
2019-06-26T12:18:07.075Z,29.10
2019-06-26T12:20:37.461Z,29.20
2019-06-26T12:23:07.884Z,29.00
2019-06-26T12:25:38.453Z,29.10
2019-06-26T12:28:08.846Z,29.10
2019-06-26T12:30:39.432Z,29.20
2019-06-26T12:33:09.837Z,29.20
2019-06-26T12:35:40.206Z,29.20
2019-06-26T12:38:10.558Z,29.10
2019-06-26T12:40:41.023Z,29.10
2019-06-26T12:43:11.352Z,29.10
2019-06-26T12:45:41.699Z,29.20
2019-06-26T12:48:15.858Z,29.00
2019-06-26T12:50:44.066Z,28.80
2019-06-26T12:53:14.423Z,28.80
2019-06-26T12:55:44.811Z,29.00
2019-06-26T12:58:19.687Z,29.00
2019-06-26T13:00:47.406Z,29.20
2019-06-26T13:03:17.783Z,29.20
2019-06-26T13:05:48.228Z,29.30
2019-06-26T13:08:18.635Z,29.40
2019-06-26T13:10:50.501Z,29.30
2019-06-26T13:13:21.034Z,29.20
2019-06-26T13:15:51.514Z,29.20
2019-06-26T13:18:21.922Z,29.10
2019-06-26T13:20:53.682Z,29.20
2019-06-26T13:23:24.287Z,29.20
2019-06-26T13:25:54.629Z,29.20
2019-06-26T13:28:25.100Z,29.30
2019-06-26T13:30:55.395Z,29.30
2019-06-26T13:33:25.808Z,29.40
2019-06-26T13:35:56.966Z,29.30
2019-06-26T13:38:27.431Z,29.30
2019-06-26T13:40:57.789Z,29.30
2019-06-26T13:43:28.065Z,29.30
2019-06-26T13:45:58.968Z,29.30
2019-06-26T13:48:29.496Z,29.30
2019-06-26T13:51:09.402Z,29.40
2019-06-26T13:53:32.144Z,29.40
2019-06-26T13:56:03.576Z,29.50
2019-06-26T13:58:33.914Z,29.60
2019-06-26T14:01:06.786Z,29.60
2019-06-26T14:03:37.167Z,29.70
2019-06-26T14:06:07.507Z,29.50
2019-06-26T14:08:38.054Z,29.40
2019-06-26T14:11:08.626Z,29.30
2019-06-26T14:13:41.792Z,29.40
2019-06-26T14:16:11.073Z,29.50
2019-06-26T14:18:41.435Z,29.40
2019-06-26T14:21:24.918Z,29.40
2019-06-26T14:23:43.950Z,29.50
2019-06-26T14:26:14.331Z,29.40
2019-06-26T14:28:44.784Z,29.40
2019-06-26T14:31:15.048Z,29.30
2019-06-26T14:33:45.563Z,29.40
2019-06-26T14:36:15.994Z,29.50
2019-06-26T14:38:46.330Z,29.50
2019-06-26T14:41:18.077Z,29.50
2019-06-26T14:43:48.446Z,29.30
2019-06-26T14:46:18.919Z,29.30
2019-06-26T14:48:49.330Z,29.30
2019-06-26T14:51:19.853Z,29.30
2019-06-26T14:53:50.419Z,29.10
2019-06-26T14:56:20.913Z,29.10
2019-06-26T14:58:52.170Z,28.90
2019-06-26T15:01:22.544Z,28.90
2019-06-26T15:03:53.111Z,29.00
2019-06-26T15:06:23.511Z,29.00
2019-06-26T15:08:53.824Z,28.90
2019-06-26T15:11:24.171Z,28.90
2019-06-26T15:13:54.548Z,28.90
2019-06-26T15:16:24.968Z,28.70
2019-06-26T15:18:55.456Z,28.60
2019-06-26T15:21:25.944Z,28.60
2019-06-26T15:23:56.256Z,28.50
2019-06-26T15:26:26.628Z,28.50
2019-06-26T15:28:56.972Z,28.30
2019-06-26T15:31:27.394Z,28.10
2019-06-26T15:33:57.748Z,28.00
2019-06-26T15:36:28.163Z,28.10
2019-06-26T15:38:59.351Z,27.90
2019-06-26T15:41:29.886Z,27.90
2019-06-26T15:44:00.334Z,28.00
2019-06-26T15:46:33.643Z,28.00
2019-06-26T15:49:07.667Z,28.10
2019-06-26T15:51:38.015Z,28.20
2019-06-26T15:54:08.438Z,28.00
2019-06-26T15:56:38.803Z,28.10
2019-06-26T15:59:09.103Z,28.10
2019-06-26T16:01:39.391Z,28.10
2019-06-26T16:04:09.729Z,27.80
2019-06-26T16:06:40.213Z,28.00
2019-06-26T16:09:10.490Z,28.00
2019-06-26T16:11:40.850Z,27.90
2019-06-26T16:14:11.233Z,27.90
2019-06-26T16:16:43.410Z,27.90
2019-06-26T16:19:16.145Z,27.80
2019-06-26T16:21:46.429Z,27.80
2019-06-26T16:24:16.888Z,27.80
2019-06-26T16:26:47.259Z,27.70
2019-06-26T16:29:18.616Z,27.60
2019-06-26T16:31:49.078Z,27.60
2019-06-26T16:34:19.384Z,27.50
2019-06-26T16:36:49.762Z,27.50
2019-06-26T16:39:21.764Z,27.50
2019-06-26T16:41:52.120Z,27.50
2019-06-26T16:44:22.601Z,27.40
2019-06-26T16:46:52.953Z,27.40
2019-06-26T16:49:23.315Z,27.30
2019-06-26T16:51:53.610Z,27.20
2019-06-26T16:54:23.914Z,27.10
2019-06-26T16:56:54.193Z,27.10
2019-06-26T16:59:24.614Z,27.10
2019-06-26T17:01:55.025Z,26.90
2019-06-26T17:04:25.400Z,26.80
2019-06-26T17:06:55.734Z,26.80
2019-06-26T17:09:26.170Z,26.80
2019-06-26T17:11:56.420Z,26.80
2019-06-26T17:14:26.691Z,26.70
2019-06-26T17:16:57.142Z,26.70
2019-06-26T17:19:27.682Z,26.80
2019-06-26T17:21:58.091Z,26.70
2019-06-26T17:24:28.464Z,26.70
2019-06-26T17:26:59.544Z,26.70
2019-06-26T17:29:30.023Z,26.70
2019-06-26T17:32:00.453Z,26.60
2019-06-26T17:34:33.578Z,26.60
2019-06-26T17:37:06.326Z,26.70
2019-06-26T17:39:36.790Z,26.60
2019-06-26T17:42:07.201Z,26.60
2019-06-26T17:44:37.591Z,26.50
2019-06-26T17:47:07.902Z,26.50
2019-06-26T17:49:38.312Z,26.40
2019-06-26T17:52:08.647Z,26.40
2019-06-26T17:54:38.959Z,26.40
2019-06-26T17:57:09.334Z,26.30
2019-06-26T17:59:39.647Z,26.30
2019-06-26T18:02:09.999Z,26.30
2019-06-26T18:04:40.448Z,26.20
2019-06-26T18:07:11.309Z,26.20
2019-06-26T18:09:41.844Z,26.20
2019-06-26T18:12:12.199Z,26.10
2019-06-26T18:14:43.442Z,26.00
2019-06-26T18:17:21.888Z,25.90
2019-06-26T18:19:47.248Z,25.80
2019-06-26T18:22:17.587Z,25.80
2019-06-26T18:24:47.935Z,25.70
2019-06-26T18:27:18.290Z,25.70
2019-06-26T18:29:48.573Z,25.60
2019-06-26T18:32:18.910Z,25.60
2019-06-26T18:34:49.274Z,25.60
2019-06-26T18:37:19.628Z,25.50
2019-06-26T18:39:50.034Z,25.40
2019-06-26T18:42:20.314Z,25.30
2019-06-26T18:44:50.670Z,25.30
2019-06-26T18:47:20.942Z,25.20
2019-06-26T18:49:52.157Z,25.10
2019-06-26T18:52:22.514Z,25.10
2019-06-26T18:54:52.803Z,25.00
2019-06-26T18:57:23.143Z,25.00
2019-06-26T18:59:53.431Z,25.00
2019-06-26T19:02:23.684Z,24.90
2019-06-26T19:04:54.284Z,24.80
2019-06-26T19:07:24.775Z,24.80
2019-06-26T19:09:56.198Z,24.70
2019-06-26T19:12:26.545Z,24.60
2019-06-26T19:14:56.921Z,24.50
2019-06-26T19:17:27.421Z,24.50
2019-06-26T19:19:57.777Z,24.50
2019-06-26T19:22:28.057Z,24.40
2019-06-26T19:24:58.393Z,24.30
2019-06-26T19:27:28.885Z,24.30
2019-06-26T19:29:59.321Z,24.20
2019-06-26T19:32:29.669Z,24.10
2019-06-26T19:35:08.115Z,24.00
2019-06-26T19:37:35.289Z,24.00
2019-06-26T19:40:08.714Z,24.00
2019-06-26T19:42:39.570Z,24.00
2019-06-26T19:45:11.983Z,23.80
2019-06-26T19:47:42.326Z,23.70
2019-06-26T19:50:13.267Z,23.60
2019-06-26T19:52:44.483Z,23.60
2019-06-26T19:55:15.009Z,23.50
2019-06-26T19:57:45.429Z,23.50
2019-06-26T20:00:16.658Z,23.50
2019-06-26T20:02:46.950Z,23.40
2019-06-26T20:05:17.383Z,23.30
2019-06-26T20:07:47.807Z,23.20
2019-06-26T20:10:18.772Z,23.10
2019-06-26T20:12:49.058Z,23.10
2019-06-26T20:15:19.498Z,23.00
2019-06-26T20:17:49.782Z,23.00
2019-06-26T20:20:20.203Z,22.90
2019-06-26T20:22:50.586Z,22.90
2019-06-26T20:25:21.016Z,22.80
2019-06-26T20:27:56.981Z,22.80
2019-06-26T20:30:26.786Z,22.70
2019-06-26T20:32:57.066Z,22.70
2019-06-26T20:35:27.333Z,22.60
2019-06-26T20:37:57.757Z,22.60
2019-06-26T20:40:28.092Z,22.50
2019-06-26T20:42:58.483Z,22.50
2019-06-26T20:45:28.832Z,22.40
2019-06-26T20:47:59.209Z,22.40
2019-06-26T20:50:29.517Z,22.30
2019-06-26T20:52:59.791Z,22.30
2019-06-26T20:55:30.936Z,22.20
2019-06-26T20:58:04.067Z,22.20
2019-06-26T21:00:34.498Z,22.10
2019-06-26T21:03:06.400Z,22.00
2019-06-26T21:05:36.662Z,22.00
2019-06-26T21:08:07.007Z,21.90
2019-06-26T21:10:37.355Z,21.80
2019-06-26T21:13:08.416Z,21.70
2019-06-26T21:15:38.803Z,21.60
2019-06-26T21:18:09.153Z,21.60
2019-06-26T21:20:39.483Z,21.50
2019-06-26T21:23:18.528Z,21.40
2019-06-26T21:25:42.010Z,21.40
2019-06-26T21:28:12.371Z,21.20
2019-06-26T21:30:42.709Z,21.20
2019-06-26T21:33:13.074Z,21.20
2019-06-26T21:35:43.344Z,21.10
2019-06-26T21:38:13.716Z,21.10
2019-06-26T21:40:44.053Z,21.00
2019-06-26T21:43:14.469Z,21.00
2019-06-26T21:45:44.834Z,20.90
2019-06-26T21:48:15.597Z,20.90
2019-06-26T21:50:46.920Z,20.80
2019-06-26T21:53:17.372Z,20.70
2019-06-26T21:56:05.867Z,20.70
2019-06-26T21:58:54.312Z,20.60
2019-06-26T22:01:42.786Z,20.50
2019-06-26T22:04:30.848Z,20.40
2019-06-26T22:07:17.751Z,20.40
2019-06-26T22:09:49.715Z,20.20
2019-06-26T22:12:20.315Z,20.20
2019-06-26T22:14:50.723Z,20.20
2019-06-26T22:17:21.105Z,20.10
2019-06-26T22:19:51.361Z,20.10
2019-06-26T22:22:21.633Z,20.10
2019-06-26T22:24:52.021Z,20.00
2019-06-26T22:27:22.681Z,19.90
2019-06-26T22:29:53.229Z,19.80
2019-06-26T22:32:23.553Z,19.70
2019-06-26T22:34:53.977Z,19.70
2019-06-26T22:37:24.401Z,19.60
2019-06-26T22:39:54.845Z,19.50
2019-06-26T22:42:25.302Z,19.50
2019-06-26T22:44:56.138Z,19.30
2019-06-26T22:47:26.550Z,19.30
2019-06-26T22:49:56.912Z,19.30
2019-06-26T22:52:27.335Z,19.30
2019-06-26T22:54:57.674Z,19.10
2019-06-26T22:57:28.118Z,19.10
2019-06-26T22:59:58.525Z,19.00
2019-06-26T23:02:28.817Z,19.00
2019-06-26T23:04:59.890Z,18.90
2019-06-26T23:07:35.936Z,18.80
2019-06-26T23:10:08.177Z,18.70
2019-06-26T23:12:38.585Z,18.60
2019-06-26T23:15:09.802Z,18.50
2019-06-26T23:17:40.314Z,18.50
2019-06-26T23:20:11.634Z,18.40
2019-06-26T23:22:42.968Z,18.40
2019-06-26T23:25:13.487Z,18.30
2019-06-26T23:27:43.981Z,18.30
2019-06-26T23:30:18.716Z,18.20
2019-06-26T23:32:49.161Z,18.20
2019-06-26T23:35:19.577Z,18.20
2019-06-26T23:37:49.906Z,18.10
2019-06-26T23:40:20.585Z,18.00
2019-06-26T23:42:51.013Z,18.10
2019-06-26T23:45:21.426Z,18.00
2019-06-26T23:47:51.778Z,18.00
2019-06-26T23:50:22.033Z,18.00
2019-06-26T23:52:53.542Z,18.10
2019-06-26T23:55:23.937Z,18.00
2019-06-26T23:57:59.118Z,18.00
